createdAt,value
2023-02-15T00:00:18.590Z,16.73
2023-02-15T00:02:46.879Z,16.93
2023-02-15T00:05:15.144Z,19.57
2023-02-15T00:07:44.794Z,18.07
2023-02-15T00:10:13.246Z,17.40
2023-02-15T00:15:21.490Z,22.43
2023-02-15T00:17:49.748Z,19.37
2023-02-15T00:20:19.383Z,24.87
2023-02-15T00:22:49.001Z,21.87
2023-02-15T00:25:17.334Z,25.10
2023-02-15T00:27:45.584Z,18.57
2023-02-15T00:30:14.943Z,19.30
2023-02-15T00:32:43.263Z,19.57
2023-02-15T00:35:11.701Z,20.67
2023-02-15T00:37:40.030Z,19.40
2023-02-15T00:40:11.437Z,19.67
2023-02-15T00:42:39.707Z,19.30
2023-02-15T00:45:09.235Z,19.80
2023-02-15T00:47:37.564Z,19.23
2023-02-15T00:50:07.432Z,18.43
2023-02-15T00:52:35.669Z,18.37
2023-02-15T00:55:03.909Z,17.17
2023-02-15T00:57:33.492Z,14.47
2023-02-15T01:00:01.696Z,16.77
2023-02-15T01:02:30.349Z,13.57
2023-02-15T01:04:58.588Z,12.37
2023-02-15T01:07:26.872Z,15.53
2023-02-15T01:09:55.134Z,15.23
2023-02-15T01:12:23.393Z,13.63
2023-02-15T01:14:52.997Z,16.17
2023-02-15T01:17:21.214Z,14.53
2023-02-15T01:19:49.754Z,18.87
2023-02-15T01:22:18.005Z,16.03
2023-02-15T01:24:46.501Z,27.60
2023-02-15T01:27:14.716Z,16.63
2023-02-15T01:29:42.935Z,20.23
2023-02-15T01:32:12.573Z,17.27
2023-02-15T01:34:40.805Z,16.67
2023-02-15T01:37:09.055Z,14.60
2023-02-15T01:39:37.304Z,15.37
2023-02-15T01:42:05.828Z,15.20
2023-02-15T01:44:59.090Z,17.40
2023-02-15T01:47:36.118Z,28.17
2023-02-15T01:50:12.395Z,14.13
2023-02-15T01:52:48.792Z,16.60
2023-02-15T01:55:18.042Z,15.93
2023-02-15T01:57:48.650Z,15.73
2023-02-15T02:00:18.598Z,17.43
2023-02-15T02:02:51.077Z,14.83
2023-02-15T02:05:19.785Z,16.03
2023-02-15T02:07:51.017Z,14.20
2023-02-15T02:10:21.425Z,13.60
2023-02-15T02:12:54.610Z,15.23
2023-02-15T02:15:32.469Z,16.00
2023-02-15T02:18:20.013Z,16.80
2023-02-15T02:21:23.634Z,16.10
2023-02-15T02:24:40.910Z,14.20
2023-02-15T02:27:32.014Z,15.80
2023-02-15T02:30:46.620Z,13.57
2023-02-15T02:33:53.880Z,16.60
2023-02-15T02:36:32.468Z,15.87
2023-02-15T02:39:24.770Z,14.60
2023-02-15T02:42:00.906Z,14.73
2023-02-15T02:44:37.534Z,15.90
2023-02-15T02:47:12.431Z,16.07
2023-02-15T02:49:44.305Z,19.40
2023-02-15T02:52:41.878Z,13.50
2023-02-15T02:55:16.477Z,15.33
2023-02-15T02:57:54.766Z,14.57
2023-02-15T03:00:25.437Z,16.13
2023-02-15T03:02:59.489Z,15.63
2023-02-15T03:05:31.878Z,15.83
2023-02-15T03:08:06.931Z,17.20
2023-02-15T03:10:37.999Z,14.93
2023-02-15T03:13:06.357Z,16.93
2023-02-15T03:15:56.928Z,16.33
2023-02-15T03:18:30.615Z,15.07
2023-02-15T03:21:03.852Z,15.63
2023-02-15T03:23:34.440Z,16.77
2023-02-15T03:26:05.731Z,16.43
2023-02-15T03:28:38.748Z,15.50
2023-02-15T03:31:09.935Z,17.33
2023-02-15T03:33:44.644Z,17.57
2023-02-15T03:36:21.639Z,17.83
2023-02-15T03:39:00.230Z,16.07
2023-02-15T03:41:36.252Z,18.07
2023-02-15T03:44:11.776Z,18.53
2023-02-15T03:46:47.511Z,15.83
2023-02-15T03:49:23.380Z,17.87
2023-02-15T03:51:57.005Z,17.13
2023-02-15T03:54:44.227Z,17.73
2023-02-15T03:57:33.719Z,17.77
2023-02-15T04:00:22.320Z,18.10
2023-02-15T04:03:11.890Z,16.53
2023-02-15T04:05:40.936Z,15.83
2023-02-15T04:08:11.825Z,16.47
2023-02-15T04:10:54.345Z,16.87
2023-02-15T04:13:23.323Z,15.27
2023-02-15T04:16:07.120Z,18.73
2023-02-15T04:18:56.242Z,16.57
2023-02-15T04:21:44.232Z,17.40
2023-02-15T04:24:32.164Z,15.63
2023-02-15T04:27:01.320Z,17.60
2023-02-15T04:29:30.893Z,18.13
2023-02-15T04:32:03.519Z,19.03
2023-02-15T04:34:31.884Z,18.37
2023-02-15T04:37:00.135Z,16.37
2023-02-15T04:39:29.779Z,17.93
2023-02-15T04:41:58.056Z,18.60
2023-02-15T04:44:26.826Z,21.13
2023-02-15T04:46:55.813Z,18.80
2023-02-15T04:49:24.042Z,18.00
2023-02-15T04:51:52.298Z,20.13
2023-02-15T04:54:20.570Z,19.33
2023-02-15T04:56:50.167Z,18.33
2023-02-15T04:59:18.416Z,18.90
2023-02-15T05:01:46.650Z,19.90
2023-02-15T05:04:15.024Z,17.00
2023-02-15T05:06:43.383Z,17.90
2023-02-15T05:09:15.180Z,17.17
2023-02-15T05:11:43.442Z,17.37
2023-02-15T05:14:13.082Z,15.77
2023-02-15T05:16:41.590Z,14.13
2023-02-15T05:19:10.227Z,17.17
2023-02-15T05:21:38.548Z,16.60
2023-02-15T05:24:28.540Z,17.23
2023-02-15T05:27:10.651Z,19.50
2023-02-15T05:29:40.239Z,19.27
2023-02-15T05:32:08.618Z,17.17
2023-02-15T05:34:36.991Z,19.50
2023-02-15T05:37:05.204Z,18.07
2023-02-15T05:39:33.458Z,19.60
2023-02-15T05:42:01.880Z,17.00
2023-02-15T05:44:30.613Z,18.50
2023-02-15T05:47:00.167Z,19.00
2023-02-15T05:49:28.450Z,18.13
2023-02-15T05:51:56.748Z,18.20
2023-02-15T05:54:24.968Z,17.50
2023-02-15T05:56:53.170Z,18.03
2023-02-15T05:59:21.389Z,18.30
2023-02-15T06:01:49.592Z,19.13
2023-02-15T06:04:19.245Z,18.27
2023-02-15T06:06:47.620Z,19.53
2023-02-15T06:09:19.154Z,20.13
2023-02-15T06:11:47.723Z,21.27
2023-02-15T06:14:15.988Z,18.97
2023-02-15T06:16:44.215Z,20.50
2023-02-15T06:19:12.436Z,20.87
2023-02-15T06:21:42.045Z,18.83
2023-02-15T06:24:11.322Z,20.13
2023-02-15T06:26:39.530Z,20.97
2023-02-15T06:29:07.832Z,21.87
2023-02-15T06:31:36.183Z,21.87
2023-02-15T06:34:04.568Z,21.83
2023-02-15T06:36:33.546Z,22.37
2023-02-15T06:39:04.064Z,24.27
2023-02-15T06:41:32.690Z,24.97
2023-02-15T06:44:01.118Z,23.00
2023-02-15T06:46:29.385Z,24.10
2023-02-15T06:48:57.650Z,23.23
2023-02-15T06:51:25.958Z,20.80
2023-02-15T06:53:54.228Z,22.43
2023-02-15T06:56:23.962Z,21.83
2023-02-15T06:58:53.574Z,21.63
2023-02-15T07:01:21.888Z,23.27
2023-02-15T07:03:50.222Z,22.90
2023-02-15T07:06:18.448Z,25.47
2023-02-15T07:08:46.670Z,24.77
2023-02-15T07:11:32.628Z,23.80
2023-02-15T07:14:02.239Z,22.53
2023-02-15T07:16:30.955Z,22.00
2023-02-15T07:18:59.258Z,21.33
2023-02-15T07:21:27.578Z,24.33
2023-02-15T07:23:59.025Z,24.47
2023-02-15T07:26:27.506Z,23.70
2023-02-15T07:28:55.785Z,25.83
2023-02-15T07:31:25.450Z,23.70
2023-02-15T07:33:53.737Z,24.30
2023-02-15T07:36:21.972Z,23.40
2023-02-15T07:38:50.263Z,23.73
2023-02-15T07:41:18.597Z,24.43
2023-02-15T07:43:47.738Z,27.90
2023-02-15T07:46:18.906Z,22.60
2023-02-15T07:48:48.930Z,22.90
2023-02-15T07:51:17.242Z,22.70
2023-02-15T07:53:45.573Z,20.60
2023-02-15T07:56:15.731Z,23.50
2023-02-15T07:58:52.689Z,21.03
2023-02-15T08:05:27.935Z,20.10
2023-02-15T08:07:56.172Z,19.60
2023-02-15T08:10:44.495Z,20.63
2023-02-15T08:13:12.736Z,20.27
2023-02-15T08:15:41.053Z,22.07
2023-02-15T08:18:09.278Z,20.47
2023-02-15T08:20:38.940Z,23.53
2023-02-15T08:23:07.148Z,23.20
2023-02-15T08:25:35.431Z,21.77
2023-02-15T08:28:03.660Z,20.23
2023-02-15T08:30:33.363Z,24.47
2023-02-15T08:33:03.356Z,20.80
2023-02-15T08:35:31.592Z,23.60
2023-02-15T08:38:01.204Z,21.00
2023-02-15T08:40:29.458Z,22.80
2023-02-15T08:42:57.750Z,22.97
2023-02-15T08:45:26.472Z,20.30
2023-02-15T08:47:55.453Z,23.47
2023-02-15T08:50:23.939Z,19.97
2023-02-15T08:52:52.182Z,22.03
2023-02-15T08:55:21.803Z,20.27
2023-02-15T08:57:50.070Z,22.37
2023-02-15T09:00:20.007Z,21.27
2023-02-15T09:02:48.256Z,20.40
2023-02-15T09:05:16.660Z,21.27
2023-02-15T09:07:44.897Z,21.80
2023-02-15T09:10:13.147Z,19.73
2023-02-15T09:12:42.727Z,20.27
2023-02-15T09:15:11.915Z,20.97
2023-02-15T09:17:40.147Z,19.80
2023-02-15T09:20:10.062Z,18.30
2023-02-15T09:22:38.332Z,19.50
2023-02-15T09:25:07.386Z,21.40
2023-02-15T09:27:35.638Z,23.10
2023-02-15T09:30:05.919Z,17.43
2023-02-15T09:32:34.250Z,21.90
2023-02-15T09:35:02.482Z,19.10
2023-02-15T09:37:32.754Z,17.90
2023-02-15T09:40:01.254Z,21.03
2023-02-15T09:43:00.613Z,21.97
2023-02-15T09:45:44.543Z,19.87
2023-02-15T09:48:41.128Z,20.03
2023-02-15T09:51:29.997Z,22.30
2023-02-15T09:54:18.127Z,22.27
2023-02-15T09:56:54.349Z,20.37
2023-02-15T09:59:32.460Z,19.97
2023-02-15T10:02:21.025Z,20.43
2023-02-15T10:05:02.768Z,19.17
2023-02-15T10:07:56.178Z,17.87
2023-02-15T10:10:34.462Z,20.60
2023-02-15T10:13:24.241Z,19.07
2023-02-15T10:16:08.976Z,20.80
2023-02-15T10:19:04.889Z,18.70
2023-02-15T10:21:51.245Z,17.90
2023-02-15T10:24:56.676Z,18.70
2023-02-15T10:27:24.882Z,19.57
2023-02-15T10:30:06.866Z,20.40
2023-02-15T10:32:49.222Z,18.10
2023-02-15T10:35:28.878Z,18.77
2023-02-15T10:38:11.230Z,21.60
2023-02-15T10:40:51.503Z,18.97
2023-02-15T10:43:48.557Z,18.63
2023-02-15T10:46:37.829Z,19.70
2023-02-15T10:49:37.222Z,17.77
2023-02-15T10:52:28.714Z,17.43
2023-02-15T10:55:11.025Z,20.87
2023-02-15T10:57:53.554Z,22.07
2023-02-15T11:00:30.088Z,17.07
2023-02-15T11:03:19.527Z,21.23
2023-02-15T11:05:59.594Z,18.30
2023-02-15T11:08:33.428Z,18.00
2023-02-15T11:11:07.836Z,19.40
2023-02-15T11:13:42.165Z,18.50
2023-02-15T11:16:18.640Z,21.43
2023-02-15T11:18:53.701Z,19.90
2023-02-15T11:21:25.310Z,21.37
2023-02-15T11:23:55.872Z,22.07
2023-02-15T11:26:31.198Z,19.63
2023-02-15T11:29:04.110Z,18.53
2023-02-15T11:31:44.948Z,18.67
2023-02-15T11:34:21.027Z,17.67
2023-02-15T11:36:52.395Z,18.47
2023-02-15T11:39:24.248Z,17.57
2023-02-15T11:41:55.919Z,18.60
2023-02-15T11:44:30.354Z,18.37
2023-02-15T11:46:59.051Z,17.50
2023-02-15T11:49:32.701Z,16.03
2023-02-15T11:52:05.242Z,18.63
2023-02-15T11:54:38.583Z,18.60
2023-02-15T11:57:16.520Z,16.90
2023-02-15T11:59:51.928Z,19.43
2023-02-15T12:02:23.110Z,18.90
2023-02-15T12:04:55.232Z,17.77
2023-02-15T12:07:29.624Z,18.70
2023-02-15T12:10:08.051Z,17.87
2023-02-15T12:12:37.794Z,19.80
2023-02-15T12:15:08.556Z,20.23
2023-02-15T12:17:42.817Z,21.20
2023-02-15T12:20:30.694Z,20.77
2023-02-15T12:23:04.182Z,18.57
2023-02-15T12:25:42.196Z,22.70
2023-02-15T12:28:26.951Z,22.00
2023-02-15T12:30:57.400Z,20.87
2023-02-15T12:33:32.333Z,18.90
2023-02-15T12:36:04.754Z,20.70
2023-02-15T12:38:35.198Z,19.87
2023-02-15T12:41:07.761Z,19.73
2023-02-15T12:43:39.319Z,19.80
2023-02-15T12:46:23.899Z,20.40
2023-02-15T12:49:10.053Z,18.43
2023-02-15T12:51:47.265Z,23.70
2023-02-15T12:54:30.996Z,21.33
2023-02-15T12:57:01.233Z,21.27
2023-02-15T12:59:29.508Z,20.53
2023-02-15T13:01:58.012Z,25.83
2023-02-15T13:04:29.413Z,21.63
2023-02-15T13:07:03.042Z,23.80
2023-02-15T13:09:40.763Z,22.17
2023-02-15T13:12:22.425Z,24.03
2023-02-15T13:14:53.749Z,22.87
2023-02-15T13:17:30.314Z,24.47
2023-02-15T13:20:04.998Z,24.20
2023-02-15T13:22:43.084Z,21.63
2023-02-15T13:25:17.017Z,22.27
2023-02-15T13:27:48.567Z,24.83
2023-02-15T13:30:30.187Z,23.63
2023-02-15T13:33:04.384Z,23.67
2023-02-15T13:35:43.245Z,23.63
2023-02-15T13:38:47.295Z,24.87
2023-02-15T13:41:19.893Z,26.13
2023-02-15T13:44:01.871Z,31.70
2023-02-15T13:46:47.799Z,26.50
2023-02-15T13:49:41.120Z,25.80
2023-02-15T13:52:21.400Z,26.43
2023-02-15T13:55:26.679Z,23.93
2023-02-15T13:58:33.917Z,23.63
2023-02-15T14:01:13.642Z,25.40
2023-02-15T14:04:16.315Z,25.73
2023-02-15T14:07:08.575Z,26.57
2023-02-15T14:09:49.604Z,23.97
2023-02-15T14:12:46.877Z,26.03
2023-02-15T14:15:28.632Z,25.47
2023-02-15T14:18:13.497Z,23.83
2023-02-15T14:20:58.840Z,23.77
2023-02-15T14:23:41.757Z,26.87
2023-02-15T14:26:19.207Z,26.50
2023-02-15T14:28:55.092Z,22.80
2023-02-15T14:31:31.955Z,25.57
2023-02-15T14:34:01.659Z,27.43
2023-02-15T14:36:32.639Z,26.40
2023-02-15T14:39:31.301Z,24.53
2023-02-15T14:42:06.881Z,27.40
2023-02-15T14:44:41.027Z,30.03
2023-02-15T14:47:18.616Z,30.83
2023-02-15T14:49:48.230Z,30.33
2023-02-15T14:52:16.441Z,26.77
2023-02-15T14:55:01.901Z,26.50
2023-02-15T14:57:36.248Z,27.73
2023-02-15T15:00:40.037Z,26.47
2023-02-15T15:03:23.062Z,27.13
2023-02-15T15:06:06.030Z,25.93
2023-02-15T15:08:38.781Z,29.37
2023-02-15T15:11:44.126Z,27.57
2023-02-15T15:14:40.964Z,25.93
2023-02-15T15:17:13.541Z,25.43
2023-02-15T15:20:14.427Z,24.87
2023-02-15T15:22:45.722Z,26.93
2023-02-15T15:25:42.852Z,30.73
2023-02-15T15:28:11.144Z,29.43
2023-02-15T15:31:07.201Z,29.63
2023-02-15T15:34:26.966Z,29.57
2023-02-15T15:37:54.415Z,26.77
2023-02-15T15:41:05.694Z,27.33
2023-02-15T15:44:36.287Z,26.30
2023-02-15T15:47:36.026Z,27.50
2023-02-15T15:50:14.325Z,26.90
2023-02-15T15:52:47.108Z,26.53
2023-02-15T15:55:20.992Z,25.30
2023-02-15T15:57:54.439Z,32.33
2023-02-15T16:00:37.600Z,29.10
2023-02-15T16:03:06.378Z,30.63
2023-02-15T16:05:39.898Z,30.03
2023-02-15T16:08:08.566Z,32.60
2023-02-15T16:10:38.921Z,39.87
2023-02-15T16:13:09.308Z,39.33
2023-02-15T16:15:46.435Z,33.73
2023-02-15T16:18:18.865Z,29.33
2023-02-15T16:20:54.207Z,31.07
2023-02-15T16:24:06.200Z,35.37
2023-02-15T16:27:01.742Z,32.23
2023-02-15T16:29:34.857Z,31.40
2023-02-15T16:32:05.950Z,31.63
2023-02-15T16:34:34.926Z,27.80
2023-02-15T16:37:17.924Z,26.30
2023-02-15T16:39:49.027Z,30.77
2023-02-15T16:42:19.245Z,31.33
2023-02-15T16:44:54.271Z,32.13
2023-02-15T16:47:27.711Z,27.10
2023-02-15T16:49:59.426Z,26.90
2023-02-15T16:52:30.161Z,28.03
2023-02-15T16:55:01.166Z,28.57
2023-02-15T16:57:34.053Z,29.67
2023-02-15T17:00:08.382Z,43.17
2023-02-15T17:02:54.995Z,29.50
2023-02-15T17:05:25.723Z,30.20
2023-02-15T17:08:15.249Z,31.97
2023-02-15T17:10:47.047Z,29.93
2023-02-15T17:13:16.219Z,34.23
2023-02-15T17:16:28.776Z,34.70
2023-02-15T17:18:59.396Z,29.53
2023-02-15T17:21:33.838Z,30.83
2023-02-15T17:24:05.130Z,34.63
2023-02-15T17:26:36.447Z,31.80
2023-02-15T17:29:15.061Z,31.87
2023-02-15T17:31:51.751Z,34.00
2023-02-15T17:34:47.240Z,34.60
2023-02-15T17:37:26.381Z,35.43
2023-02-15T17:39:55.220Z,38.93
2023-02-15T17:42:23.530Z,35.40
2023-02-15T17:44:51.840Z,37.13
2023-02-15T17:47:25.585Z,35.50
2023-02-15T17:49:55.841Z,30.90
2023-02-15T17:52:25.116Z,35.33
2023-02-15T17:55:12.973Z,48.00
2023-02-15T17:57:41.256Z,37.73
2023-02-15T18:00:33.296Z,32.93
2023-02-15T18:03:20.507Z,30.40
2023-02-15T18:06:06.100Z,31.73
2023-02-15T18:08:51.729Z,31.63
2023-02-15T18:11:38.410Z,29.07
2023-02-15T18:14:08.317Z,30.50
2023-02-15T18:16:40.868Z,31.93
2023-02-15T18:19:18.015Z,36.27
2023-02-15T18:21:47.227Z,30.87
2023-02-15T18:24:20.457Z,35.80
2023-02-15T18:26:49.590Z,38.63
2023-02-15T18:29:18.022Z,31.77
2023-02-15T18:31:49.767Z,31.60
2023-02-15T18:34:28.730Z,31.17
2023-02-15T18:36:58.094Z,33.60
2023-02-15T18:39:32.460Z,33.90
2023-02-15T18:42:00.784Z,28.10
2023-02-15T18:44:29.126Z,33.83
2023-02-15T18:46:57.410Z,32.67
2023-02-15T18:49:27.048Z,30.87
2023-02-15T18:51:55.363Z,28.93
2023-02-15T18:54:26.055Z,29.53
2023-02-15T18:56:58.471Z,29.87
2023-02-15T18:59:30.420Z,31.93
2023-02-15T19:02:00.460Z,30.73
2023-02-15T19:04:30.114Z,34.23
2023-02-15T19:06:58.396Z,35.83
2023-02-15T19:09:27.816Z,31.57
2023-02-15T19:11:57.595Z,33.97
2023-02-15T19:14:29.824Z,36.63
2023-02-15T19:17:00.542Z,34.83
2023-02-15T19:19:30.205Z,33.13
2023-02-15T19:21:58.564Z,33.03
2023-02-15T19:24:38.585Z,35.63
2023-02-15T19:27:08.980Z,34.10
2023-02-15T19:29:38.209Z,38.53
2023-02-15T19:32:06.827Z,33.10
2023-02-15T19:34:36.476Z,33.63
2023-02-15T19:37:06.905Z,35.27
2023-02-15T19:39:40.335Z,38.87
2023-02-15T19:42:15.516Z,41.97
2023-02-15T19:44:43.788Z,32.57
2023-02-15T19:47:14.829Z,35.13
2023-02-15T19:49:44.481Z,33.47
2023-02-15T19:52:19.504Z,28.50
2023-02-15T19:54:49.276Z,34.03
2023-02-15T19:57:17.893Z,33.13
2023-02-15T19:59:46.229Z,32.53
2023-02-15T20:02:15.659Z,41.60
2023-02-15T20:04:45.440Z,46.40
2023-02-15T20:07:23.707Z,40.90
2023-02-15T20:09:52.105Z,33.80
2023-02-15T20:12:24.203Z,34.20
2023-02-15T20:14:52.515Z,34.83
2023-02-15T20:17:21.003Z,32.87
2023-02-15T20:19:51.021Z,35.97
2023-02-15T20:22:25.122Z,39.40
2023-02-15T20:24:56.243Z,33.53
2023-02-15T20:27:24.893Z,32.17
2023-02-15T20:29:56.718Z,37.57
2023-02-15T20:32:25.723Z,29.37
2023-02-15T20:34:55.421Z,33.03
2023-02-15T20:37:28.651Z,33.47
2023-02-15T20:39:57.293Z,31.73
2023-02-15T20:42:25.568Z,30.13
2023-02-15T20:44:53.811Z,31.73
2023-02-15T20:47:22.077Z,30.57
2023-02-15T20:49:50.615Z,27.00
2023-02-15T20:52:22.090Z,30.20
2023-02-15T20:54:50.541Z,29.93
2023-02-15T20:57:18.795Z,27.67
2023-02-15T20:59:47.007Z,29.20
2023-02-15T21:02:23.530Z,28.27
2023-02-15T21:04:52.044Z,31.27
2023-02-15T21:07:22.869Z,28.33
2023-02-15T21:09:52.395Z,31.10
2023-02-15T21:12:22.079Z,32.53
2023-02-15T21:14:50.494Z,27.83
2023-02-15T21:17:19.104Z,30.23
2023-02-15T21:19:47.400Z,28.17
2023-02-15T21:22:17.122Z,30.73
2023-02-15T21:24:51.668Z,30.47
2023-02-15T21:27:20.358Z,34.40
2023-02-15T21:29:48.635Z,31.27
2023-02-15T21:32:17.034Z,29.97
2023-02-15T21:34:45.424Z,32.80
2023-02-15T21:37:32.057Z,29.43
2023-02-15T21:40:02.752Z,34.63
2023-02-15T21:42:48.492Z,33.73
2023-02-15T21:45:35.494Z,31.20
2023-02-15T21:48:03.977Z,42.83
2023-02-15T21:50:49.798Z,31.60
2023-02-15T21:53:25.355Z,29.13
2023-02-15T21:55:58.640Z,29.13
2023-02-15T21:58:29.358Z,38.07
2023-02-15T22:00:59.623Z,32.63
2023-02-15T22:03:32.245Z,29.33
2023-02-15T22:06:00.592Z,32.57
2023-02-15T22:08:29.282Z,29.47
2023-02-15T22:10:59.183Z,32.57
2023-02-15T22:13:30.834Z,26.60
2023-02-15T22:15:59.999Z,31.33
2023-02-15T22:18:33.351Z,29.80
2023-02-15T22:21:03.614Z,27.93
2023-02-15T22:23:32.474Z,27.13
2023-02-15T22:26:06.486Z,29.13
2023-02-15T22:28:38.298Z,27.37
2023-02-15T22:31:13.283Z,30.73
2023-02-15T22:33:41.732Z,27.60
2023-02-15T22:36:24.820Z,26.87
2023-02-15T22:38:53.740Z,25.90
2023-02-15T22:41:24.739Z,27.00
2023-02-15T22:43:53.110Z,28.27
2023-02-15T22:46:25.461Z,25.97
2023-02-15T22:48:54.437Z,28.03
2023-02-15T22:51:25.361Z,29.37
2023-02-15T22:53:54.054Z,30.13
2023-02-15T22:56:29.563Z,27.13
2023-02-15T22:59:05.508Z,28.73
2023-02-15T23:01:37.182Z,27.63
2023-02-15T23:04:05.881Z,30.77
2023-02-15T23:06:35.370Z,27.37
2023-02-15T23:09:03.665Z,22.90
2023-02-15T23:11:33.325Z,23.40
2023-02-15T23:14:03.040Z,25.63
2023-02-15T23:16:31.901Z,22.87
2023-02-15T23:19:00.205Z,25.17
2023-02-15T23:21:32.003Z,27.13
2023-02-15T23:24:18.992Z,24.70
2023-02-15T23:26:50.556Z,23.93
2023-02-15T23:29:22.337Z,26.97
2023-02-15T23:31:53.427Z,26.17
2023-02-15T23:34:28.628Z,27.70
2023-02-15T23:36:57.874Z,27.03
2023-02-15T23:39:45.919Z,28.63
2023-02-15T23:42:19.905Z,27.63
2023-02-15T23:44:49.658Z,24.80
2023-02-15T23:47:42.640Z,22.37
2023-02-15T23:50:19.074Z,24.90
2023-02-15T23:52:47.407Z,23.57
2023-02-15T23:55:17.005Z,25.73
2023-02-15T23:57:47.522Z,28.03
